createdAt,value
2022-08-05T00:01:27.252Z,5.27
2022-08-05T00:04:30.361Z,5.82
2022-08-05T00:10:54.434Z,5.15
2022-08-05T00:13:56.397Z,5.60
2022-08-05T00:16:58.590Z,7.03
2022-08-05T00:20:04.409Z,5.30
2022-08-05T00:23:12.744Z,6.70
2022-08-05T00:26:17.027Z,6.55
2022-08-05T00:29:19.228Z,6.38
2022-08-05T00:32:25.803Z,5.45
2022-08-05T00:35:33.447Z,6.15
2022-08-05T00:38:35.722Z,6.25
2022-08-05T00:41:51.984Z,5.60
2022-08-05T00:44:57.254Z,5.22
2022-08-05T00:48:05.915Z,6.90
2022-08-05T00:51:08.833Z,7.22
2022-08-05T00:54:30.323Z,6.20
2022-08-05T00:57:55.563Z,6.95
2022-08-05T01:00:54.319Z,5.73
2022-08-05T01:03:56.322Z,4.90
2022-08-05T01:06:59.193Z,6.28
2022-08-05T01:10:02.511Z,5.65
2022-08-05T01:13:22.371Z,5.93
2022-08-05T01:16:47.673Z,5.93
2022-08-05T01:20:02.306Z,6.32
2022-08-05T01:23:34.592Z,5.60
2022-08-05T01:26:55.701Z,5.82
2022-08-05T01:30:02.683Z,5.93
2022-08-05T01:33:09.199Z,6.20
2022-08-05T01:36:16.213Z,6.07
2022-08-05T01:39:46.903Z,6.25
2022-08-05T01:42:44.283Z,6.45
2022-08-05T01:45:46.675Z,9.50
2022-08-05T01:49:00.875Z,6.65
2022-08-05T01:52:23.833Z,6.93
2022-08-05T01:55:30.907Z,6.88
2022-08-05T01:58:40.851Z,6.35
2022-08-05T02:01:49.542Z,7.88
2022-08-05T02:04:54.505Z,6.20
2022-08-05T02:08:01.260Z,6.45
2022-08-05T02:11:08.523Z,7.45
2022-08-05T02:14:20.103Z,6.88
2022-08-05T02:18:32.484Z,6.35
2022-08-05T02:21:00.844Z,7.38
2022-08-05T02:24:08.156Z,6.82
2022-08-05T02:27:12.457Z,6.45
2022-08-05T02:30:15.153Z,6.78
2022-08-05T02:33:24.504Z,7.22
2022-08-05T02:36:52.062Z,6.78
2022-08-05T02:39:55.824Z,6.90
2022-08-05T02:46:01.930Z,7.13
2022-08-05T02:49:05.448Z,6.45
2022-08-05T02:52:29.543Z,6.80
2022-08-05T02:55:48.341Z,8.98
2022-08-05T03:01:59.100Z,7.40
2022-08-05T03:05:01.924Z,9.07
2022-08-05T03:08:08.825Z,9.13
2022-08-05T03:11:57.463Z,7.25
2022-08-05T03:14:46.030Z,7.65
2022-08-05T03:17:48.118Z,7.53
2022-08-05T03:20:56.194Z,6.38
2022-08-05T03:24:00.600Z,9.32
2022-08-05T03:27:06.642Z,7.60
2022-08-05T03:30:10.136Z,7.07
2022-08-05T03:33:12.710Z,7.90
2022-08-05T03:39:20.318Z,6.70
2022-08-05T03:42:32.797Z,6.65
2022-08-05T03:45:57.450Z,6.82
2022-08-05T03:49:01.864Z,7.63
2022-08-05T03:52:48.882Z,7.55
2022-08-05T03:56:01.952Z,9.40
2022-08-05T03:59:02.880Z,7.97
2022-08-05T04:02:05.748Z,7.55
2022-08-05T04:05:10.265Z,7.15
2022-08-05T04:08:14.628Z,6.10
2022-08-05T04:11:25.066Z,7.53
2022-08-05T04:14:47.611Z,10.48
2022-08-05T04:17:56.647Z,6.47
2022-08-05T04:21:04.006Z,7.10
2022-08-05T04:24:09.054Z,7.47
2022-08-05T04:27:33.070Z,8.60
2022-08-05T04:30:42.953Z,6.43
2022-08-05T04:34:17.165Z,7.07
2022-08-05T04:37:06.806Z,8.07
2022-08-05T04:40:09.478Z,7.47
2022-08-05T04:43:11.383Z,8.00
2022-08-05T04:46:28.242Z,7.70
2022-08-05T04:49:39.196Z,6.93
2022-08-05T04:52:52.393Z,6.60
2022-08-05T04:56:14.702Z,6.78
2022-08-05T04:59:24.064Z,9.03
2022-08-05T05:02:41.791Z,7.03
2022-08-05T05:06:39.325Z,5.68
2022-08-05T05:09:07.197Z,6.40
2022-08-05T05:12:09.260Z,4.22
2022-08-05T05:15:13.513Z,4.55
2022-08-05T05:18:28.672Z,4.78
2022-08-05T05:21:35.087Z,6.95
2022-08-05T05:24:57.731Z,4.95
2022-08-05T05:27:59.276Z,5.47
2022-08-05T05:31:01.203Z,9.70
2022-08-05T05:34:07.609Z,5.18
2022-08-05T05:40:15.280Z,6.10
2022-08-05T05:43:22.091Z,5.55
2022-08-05T05:46:39.342Z,6.35
2022-08-05T05:49:42.136Z,5.30
2022-08-05T05:52:46.597Z,4.43
2022-08-05T05:55:52.264Z,6.28
2022-08-05T05:59:07.711Z,5.65
2022-08-05T06:02:09.902Z,4.75
2022-08-05T06:05:16.880Z,4.65
2022-08-05T06:08:31.473Z,5.93
2022-08-05T06:11:35.041Z,4.05
2022-08-05T06:14:41.474Z,8.00
2022-08-05T06:17:52.726Z,4.70
2022-08-05T06:20:55.624Z,5.95
2022-08-05T06:23:57.514Z,5.55
2022-08-05T06:27:04.003Z,5.65
2022-08-05T06:30:17.863Z,3.80
2022-08-05T06:33:33.395Z,3.67
2022-08-05T06:36:57.898Z,4.38
2022-08-05T06:40:00.747Z,5.25
2022-08-05T06:43:04.501Z,4.22
2022-08-05T06:46:07.216Z,6.18
2022-08-05T06:49:09.384Z,3.15
2022-08-05T06:52:37.844Z,3.17
2022-08-05T06:55:36.312Z,3.40
2022-08-05T06:58:38.763Z,4.97
2022-08-05T07:01:42.499Z,3.35
2022-08-05T07:04:44.506Z,4.55
2022-08-05T07:07:48.090Z,4.18
2022-08-05T07:10:52.535Z,3.80
2022-08-05T07:13:59.476Z,3.90
2022-08-05T07:17:59.534Z,3.80
2022-08-05T07:20:33.867Z,4.38
2022-08-05T07:23:49.108Z,3.20
2022-08-05T07:26:52.159Z,3.10
2022-08-05T07:30:25.347Z,4.25
2022-08-05T07:36:21.455Z,4.90
2022-08-05T07:39:24.704Z,2.78
2022-08-05T07:45:57.575Z,6.22
2022-08-05T07:49:05.793Z,4.93
2022-08-05T07:52:08.294Z,4.18
2022-08-05T07:55:44.014Z,2.80
2022-08-05T08:01:57.446Z,4.30
2022-08-05T08:05:00.673Z,2.83
2022-08-05T08:08:02.599Z,3.75
2022-08-05T08:11:04.501Z,2.53
2022-08-05T08:14:10.978Z,3.90
2022-08-05T08:17:21.496Z,3.85
2022-08-05T08:21:00.187Z,3.55
2022-08-05T08:24:02.764Z,2.40
2022-08-05T08:27:07.327Z,3.40
2022-08-05T08:30:29.382Z,3.25
2022-08-05T08:33:37.557Z,4.10
2022-08-05T08:36:49.902Z,8.90
2022-08-05T08:39:54.543Z,6.60
2022-08-05T08:42:56.911Z,2.78
2022-08-05T08:50:23.197Z,2.85
2022-08-05T08:52:56.620Z,2.75
2022-08-05T08:56:05.280Z,2.65
2022-08-05T08:59:14.668Z,3.78
2022-08-05T09:02:22.125Z,2.78
2022-08-05T09:05:38.308Z,3.60
2022-08-05T09:11:55.346Z,2.63
2022-08-05T09:15:06.819Z,4.78
2022-08-05T09:18:09.913Z,3.05
2022-08-05T09:21:20.695Z,5.80
2022-08-05T09:24:37.326Z,4.00
2022-08-05T09:28:04.024Z,2.53
2022-08-05T09:34:55.479Z,3.08
2022-08-05T09:38:12.273Z,3.00
2022-08-05T09:41:19.778Z,4.57
2022-08-05T09:44:43.655Z,3.00
2022-08-05T09:47:56.255Z,4.25
2022-08-05T09:51:04.504Z,2.40
2022-08-05T09:54:29.563Z,2.33
2022-08-05T09:57:35.262Z,2.45
2022-08-05T10:00:58.762Z,7.00
2022-08-05T10:04:10.498Z,2.53
2022-08-05T10:07:21.028Z,2.33
2022-08-05T10:10:44.797Z,2.88
2022-08-05T10:13:48.331Z,6.03
2022-08-05T10:16:53.438Z,2.40
2022-08-05T10:20:03.534Z,2.67
2022-08-05T10:23:08.934Z,3.57
2022-08-05T10:26:32.565Z,5.43
2022-08-05T10:30:41.984Z,2.17
2022-08-05T10:33:17.527Z,3.55
2022-08-05T10:36:23.633Z,2.03
2022-08-05T10:39:59.525Z,2.42
2022-08-05T10:43:11.219Z,6.07
2022-08-05T10:46:17.500Z,2.63
2022-08-05T10:49:27.132Z,3.00
2022-08-05T10:52:52.996Z,1.65
2022-08-05T10:56:21.052Z,3.65
2022-08-05T11:00:03.677Z,2.28
2022-08-05T11:03:23.327Z,4.25
2022-08-05T11:06:30.915Z,3.15
2022-08-05T11:09:47.530Z,2.17
2022-08-05T11:12:50.874Z,3.83
2022-08-05T11:16:33.944Z,2.10
2022-08-05T11:20:10.643Z,2.17
2022-08-05T11:23:49.892Z,2.67
2022-08-05T11:26:49.753Z,2.75
2022-08-05T11:29:59.874Z,2.67
2022-08-05T11:33:44.074Z,3.22
2022-08-05T11:36:52.969Z,3.05
2022-08-05T11:40:02.688Z,2.97
2022-08-05T11:43:05.903Z,2.20
2022-08-05T11:46:15.465Z,1.73
2022-08-05T11:49:33.991Z,2.60
2022-08-05T11:52:36.114Z,2.30
2022-08-05T11:55:38.047Z,2.10
2022-08-05T12:02:06.984Z,3.80
2022-08-05T12:05:36.087Z,2.95
2022-08-05T12:08:51.262Z,3.88
2022-08-05T12:14:56.450Z,3.72
2022-08-05T12:18:02.950Z,2.30
2022-08-05T12:21:32.756Z,2.28
2022-08-05T12:24:49.716Z,2.55
2022-08-05T12:27:53.183Z,2.33
2022-08-05T12:30:57.355Z,2.50
2022-08-05T12:33:59.766Z,5.30
2022-08-05T12:37:10.673Z,2.67
2022-08-05T12:40:26.310Z,3.00
2022-08-05T12:43:32.164Z,3.08
2022-08-05T12:46:37.320Z,3.92
2022-08-05T12:50:03.697Z,2.88
2022-08-05T12:53:06.303Z,4.82
2022-08-05T12:56:34.603Z,3.40
2022-08-05T13:01:58.637Z,2.10
2022-08-05T13:03:15.531Z,1.95
2022-08-05T13:06:18.159Z,3.78
2022-08-05T13:09:27.872Z,3.00
2022-08-05T13:12:30.690Z,2.95
2022-08-05T13:15:41.106Z,2.92
2022-08-05T13:18:58.469Z,1.90
2022-08-05T13:22:00.889Z,3.85
2022-08-05T13:25:19.003Z,4.03
2022-08-05T13:28:23.780Z,2.47
2022-08-05T13:32:02.881Z,1.80
2022-08-05T13:37:55.576Z,4.32
2022-08-05T13:40:58.237Z,4.40
2022-08-05T13:44:00.459Z,5.10
2022-08-05T13:47:08.634Z,2.47
2022-08-05T13:50:16.272Z,3.00
2022-08-05T13:53:18.713Z,2.28
2022-08-05T13:56:20.695Z,2.20
2022-08-05T13:59:25.337Z,1.88
2022-08-05T14:02:29.684Z,3.60
2022-08-05T14:06:04.735Z,1.88
2022-08-05T14:08:53.728Z,1.95
2022-08-05T14:12:04.178Z,2.83
2022-08-05T14:18:40.201Z,2.17
2022-08-05T14:22:09.901Z,2.45
2022-08-05T14:25:06.143Z,3.05
2022-08-05T14:28:08.420Z,2.65
2022-08-05T14:32:02.979Z,2.42
2022-08-05T14:37:45.298Z,2.55
2022-08-05T14:40:50.974Z,2.10
2022-08-05T14:44:02.134Z,2.80
2022-08-05T14:47:07.650Z,2.33
2022-08-05T14:50:17.524Z,2.75
2022-08-05T14:53:20.543Z,2.28
2022-08-05T14:56:23.828Z,3.55
2022-08-05T14:59:29.777Z,2.72
2022-08-05T15:02:37.515Z,2.13
2022-08-05T15:06:08.430Z,2.50
2022-08-05T15:09:04.388Z,2.88
2022-08-05T15:12:06.628Z,4.60
2022-08-05T15:15:15.574Z,3.97
2022-08-05T15:18:17.733Z,2.47
2022-08-05T15:21:21.016Z,1.98
2022-08-05T15:24:25.366Z,3.72
2022-08-05T15:27:32.188Z,2.10
2022-08-05T15:30:37.818Z,3.42
2022-08-05T15:34:06.195Z,3.17
2022-08-05T15:41:02.824Z,2.35
2022-08-05T15:43:45.347Z,4.78
2022-08-05T15:46:48.122Z,3.78
2022-08-05T15:49:59.062Z,3.47
2022-08-05T15:53:04.078Z,3.58
2022-08-05T15:56:14.108Z,3.20
2022-08-05T15:59:21.729Z,2.40
2022-08-05T16:02:25.454Z,2.83
2022-08-05T16:05:28.620Z,4.55
2022-08-05T16:08:31.023Z,2.55
2022-08-05T16:11:42.493Z,3.33
2022-08-05T16:14:45.181Z,2.30
2022-08-05T16:17:57.969Z,5.03
2022-08-05T16:21:03.991Z,2.17
2022-08-05T16:24:12.588Z,2.97
2022-08-05T16:27:15.898Z,2.40
2022-08-05T16:30:26.356Z,3.78
2022-08-05T16:33:30.988Z,3.00
2022-08-05T16:36:43.433Z,4.85
2022-08-05T16:40:05.960Z,2.28
2022-08-05T16:43:07.199Z,2.83
2022-08-05T16:49:26.614Z,2.90
2022-08-05T16:52:33.513Z,2.58
2022-08-05T16:55:47.148Z,2.28
2022-08-05T16:58:49.341Z,2.97
2022-08-05T17:01:54.623Z,7.10
2022-08-05T17:04:57.977Z,5.03
2022-08-05T17:11:02.595Z,4.05
2022-08-05T17:14:06.130Z,3.85
2022-08-05T17:17:14.337Z,4.95
2022-08-05T17:20:17.222Z,6.30
2022-08-05T17:26:41.178Z,2.67
2022-08-05T17:29:44.373Z,3.35
2022-08-05T17:32:48.560Z,4.32
2022-08-05T17:36:08.023Z,3.38
2022-08-05T17:39:24.070Z,6.22
2022-08-05T17:42:32.324Z,3.67
2022-08-05T17:45:38.785Z,3.55
2022-08-05T17:48:43.239Z,5.50
2022-08-05T17:51:46.799Z,4.03
2022-08-05T17:54:52.542Z,3.25
2022-08-05T17:57:55.541Z,4.05
2022-08-05T18:00:57.433Z,2.83
2022-08-05T18:04:03.837Z,3.67
2022-08-05T18:07:06.786Z,3.90
2022-08-05T18:10:20.870Z,6.20
2022-08-05T18:13:23.488Z,8.13
2022-08-05T18:16:27.769Z,11.23
2022-08-05T18:19:29.677Z,6.10
2022-08-05T18:22:46.100Z,10.27
2022-08-05T18:25:57.594Z,10.45
2022-08-05T18:29:01.449Z,10.50
2022-08-05T18:32:03.525Z,8.25
2022-08-05T18:35:05.775Z,6.25
2022-08-05T18:41:55.403Z,7.38
2022-08-05T18:44:34.672Z,6.40
2022-08-05T18:47:37.279Z,11.35
2022-08-05T18:50:42.126Z,27.13
2022-08-05T18:53:50.444Z,10.38
2022-08-05T18:56:52.539Z,18.25
2022-08-05T19:03:05.397Z,4.85
2022-08-05T19:06:18.930Z,9.27
2022-08-05T19:09:23.932Z,9.40
2022-08-05T19:12:27.829Z,7.60
2022-08-05T19:15:59.165Z,10.05
2022-08-05T19:18:52.620Z,4.03
2022-08-05T19:21:54.896Z,4.07
2022-08-05T19:27:59.930Z,5.27
2022-08-05T19:31:05.844Z,4.40
2022-08-05T19:34:08.502Z,4.68
2022-08-05T19:37:10.994Z,5.55
2022-08-05T19:40:15.049Z,7.15
2022-08-05T19:43:24.439Z,4.95
2022-08-05T19:46:39.739Z,4.18
2022-08-05T19:49:41.955Z,4.22
2022-08-05T19:56:14.802Z,3.90
2022-08-05T19:59:55.084Z,4.40
2022-08-05T20:02:34.793Z,4.30
2022-08-05T20:05:49.759Z,4.20
2022-08-05T20:08:53.322Z,4.82
2022-08-05T20:11:56.018Z,4.53
2022-08-05T20:18:02.333Z,4.18
2022-08-05T20:21:07.023Z,4.20
2022-08-05T20:24:11.436Z,4.35
2022-08-05T20:27:13.824Z,4.57
2022-08-05T20:30:18.204Z,7.10
2022-08-05T20:33:21.877Z,4.35
2022-08-05T20:36:24.547Z,5.28
2022-08-05T20:39:36.426Z,5.20
2022-08-05T20:42:38.935Z,4.15
2022-08-05T20:48:59.410Z,4.60
2022-08-05T20:52:01.348Z,4.30
2022-08-05T20:56:07.484Z,6.32
2022-08-05T20:58:25.383Z,5.77
2022-08-05T21:01:38.288Z,4.25
2022-08-05T21:04:40.817Z,5.95
2022-08-05T21:07:50.801Z,5.03
2022-08-05T21:10:54.409Z,5.18
2022-08-05T21:14:00.624Z,4.82
2022-08-05T21:17:05.087Z,6.63
2022-08-05T21:20:10.078Z,4.80
2022-08-05T21:23:12.204Z,5.03
2022-08-05T21:26:16.042Z,4.85
2022-08-05T21:29:17.940Z,4.60
2022-08-05T21:32:20.349Z,4.40
2022-08-05T21:38:44.485Z,5.88
2022-08-05T21:41:52.578Z,4.40
2022-08-05T21:44:54.932Z,5.35
2022-08-05T21:47:58.651Z,4.35
2022-08-05T21:51:00.542Z,5.50
2022-08-05T21:54:04.049Z,5.20
2022-08-05T21:57:29.526Z,4.95
2022-08-05T22:00:28.946Z,5.70
2022-08-05T22:06:53.089Z,4.80
2022-08-05T22:09:54.982Z,5.95
2022-08-05T22:13:09.218Z,5.53
2022-08-05T22:16:41.093Z,5.00
2022-08-05T22:20:02.125Z,4.65
2022-08-05T22:23:15.877Z,5.60
2022-08-05T22:26:19.229Z,6.85
2022-08-05T22:29:26.665Z,7.38
2022-08-05T22:32:28.832Z,5.88
2022-08-05T22:35:48.125Z,6.20
2022-08-05T22:38:52.129Z,5.32
2022-08-05T22:42:10.874Z,5.05
2022-08-05T22:45:13.859Z,5.45
2022-08-05T22:48:16.169Z,6.13
2022-08-05T22:51:29.987Z,4.90
2022-08-05T22:54:48.821Z,5.20
2022-08-05T22:57:52.319Z,5.88
2022-08-05T23:00:54.185Z,5.32
2022-08-05T23:03:59.746Z,5.55
2022-08-05T23:07:02.234Z,5.28
2022-08-05T23:13:09.690Z,4.88
2022-08-05T23:16:12.036Z,5.60
2022-08-05T23:19:23.710Z,5.40
2022-08-05T23:22:28.609Z,5.85
2022-08-05T23:25:54.635Z,5.93
2022-08-05T23:28:52.530Z,5.77
2022-08-05T23:31:55.978Z,6.65
2022-08-05T23:34:59.247Z,5.10
2022-08-05T23:38:01.108Z,5.95
2022-08-05T23:41:03.015Z,5.40
2022-08-05T23:44:08.857Z,6.95
2022-08-05T23:47:15.106Z,5.85
2022-08-05T23:50:20.279Z,5.60
2022-08-05T23:53:23.215Z,5.90
2022-08-05T23:56:30.208Z,6.10
